createdAt,value
2022-08-22T00:00:59.372Z,17.59
2022-08-22T00:02:49.335Z,18.73
2022-08-22T00:03:06.628Z,17.74
2022-08-22T00:03:55.728Z,17.55
2022-08-22T00:06:50.465Z,17.57
2022-08-22T00:09:29.911Z,17.55
2022-08-22T00:12:06.670Z,17.52
2022-08-22T00:14:51.174Z,17.58
2022-08-22T00:17:32.953Z,17.59
2022-08-22T00:20:10.569Z,17.60
2022-08-22T00:23:03.234Z,17.60
2022-08-22T00:25:40.357Z,17.64
2022-08-22T00:28:15.952Z,17.67
2022-08-22T00:31:03.127Z,17.70
2022-08-22T00:33:53.092Z,17.67
2022-08-22T00:36:25.326Z,17.61
2022-08-22T00:39:04.311Z,17.59
2022-08-22T00:41:45.237Z,17.57
2022-08-22T00:44:52.748Z,17.58
2022-08-22T00:47:44.354Z,17.56
2022-08-22T00:50:26.541Z,17.54
2022-08-22T00:52:55.045Z,17.53
2022-08-22T00:55:48.308Z,17.49
2022-08-22T00:58:46.190Z,17.51
2022-08-22T01:01:15.586Z,17.44
2022-08-22T01:03:46.861Z,17.46
2022-08-22T01:06:28.824Z,17.44
2022-08-22T01:09:28.233Z,17.43
2022-08-22T01:12:11.836Z,17.42
2022-08-22T01:14:49.072Z,17.42
2022-08-22T01:17:34.434Z,17.45
2022-08-22T01:20:16.350Z,17.46
2022-08-22T01:23:04.766Z,17.44
2022-08-22T01:26:08.924Z,17.42
2022-08-22T01:29:10.569Z,17.41
2022-08-22T01:31:58.885Z,17.41
2022-08-22T01:34:46.802Z,17.41
2022-08-22T01:37:41.780Z,17.41
2022-08-22T01:40:53.527Z,17.37
2022-08-22T01:44:00.415Z,17.36
2022-08-22T01:46:54.327Z,17.37
2022-08-22T01:49:41.180Z,17.35
2022-08-22T01:52:14.047Z,17.34
2022-08-22T01:54:54.879Z,17.31
2022-08-22T01:57:23.651Z,17.29
2022-08-22T01:59:54.375Z,17.25
2022-08-22T02:02:41.838Z,17.21
2022-08-22T02:05:18.734Z,17.24
2022-08-22T02:08:03.855Z,17.23
2022-08-22T02:10:57.382Z,17.21
2022-08-22T02:13:30.536Z,17.18
2022-08-22T02:16:41.043Z,17.14
2022-08-22T02:19:16.858Z,17.11
2022-08-22T02:22:02.565Z,17.09
2022-08-22T02:24:57.597Z,17.06
2022-08-22T02:27:49.223Z,17.03
2022-08-22T02:30:20.880Z,16.96
2022-08-22T02:33:03.775Z,16.99
2022-08-22T02:35:33.582Z,16.97
2022-08-22T02:38:29.896Z,16.91
2022-08-22T02:41:10.684Z,16.87
2022-08-22T02:43:49.642Z,16.82
2022-08-22T02:46:28.544Z,16.77
2022-08-22T02:49:12.892Z,16.77
2022-08-22T02:51:58.073Z,16.73
2022-08-22T02:54:42.030Z,16.66
2022-08-22T02:57:27.351Z,16.66
2022-08-22T03:00:27.672Z,16.66
2022-08-22T03:02:59.748Z,16.63
2022-08-22T03:05:26.648Z,16.61
2022-08-22T03:07:59.238Z,16.59
2022-08-22T03:10:35.320Z,16.56
2022-08-22T03:13:18.666Z,16.55
2022-08-22T03:15:56.660Z,16.54
2022-08-22T03:18:31.506Z,16.54
2022-08-22T03:21:12.004Z,16.50
2022-08-22T03:24:23.224Z,16.54
2022-08-22T03:27:05.908Z,16.49
2022-08-22T03:29:50.528Z,16.48
2022-08-22T03:32:21.371Z,16.50
2022-08-22T03:35:23.608Z,16.45
2022-08-22T03:37:56.970Z,16.42
2022-08-22T03:40:34.756Z,16.51
2022-08-22T03:43:40.237Z,16.50
2022-08-22T03:46:13.122Z,16.51
2022-08-22T03:49:06.013Z,16.48
2022-08-22T03:51:51.672Z,16.47
2022-08-22T03:54:37.556Z,16.44
2022-08-22T03:57:06.544Z,16.46
2022-08-22T03:59:49.074Z,16.47
2022-08-22T04:02:42.237Z,16.50
2022-08-22T04:05:28.577Z,16.51
2022-08-22T04:08:01.424Z,16.53
2022-08-22T04:10:51.864Z,16.52
2022-08-22T04:13:40.352Z,16.53
2022-08-22T04:16:44.398Z,16.56
2022-08-22T04:19:48.641Z,16.60
2022-08-22T04:22:37.574Z,16.64
2022-08-22T04:25:25.691Z,16.70
2022-08-22T04:28:03.448Z,16.74
2022-08-22T04:30:40.014Z,16.77
2022-08-22T04:33:25.013Z,16.83
2022-08-22T04:35:55.379Z,16.92
2022-08-22T04:38:31.173Z,16.98
2022-08-22T04:41:12.607Z,17.06
2022-08-22T04:43:52.459Z,17.12
2022-08-22T04:46:36.695Z,17.14
2022-08-22T04:49:37.179Z,17.12
2022-08-22T04:52:15.874Z,17.21
2022-08-22T04:54:56.268Z,17.24
2022-08-22T04:57:32.824Z,17.29
2022-08-22T05:00:08.549Z,17.34
2022-08-22T05:02:39.042Z,17.32
2022-08-22T05:05:13.817Z,17.40
2022-08-22T05:07:56.505Z,17.45
2022-08-22T05:10:35.765Z,17.39
2022-08-22T05:13:19.762Z,17.60
2022-08-22T05:15:50.542Z,17.64
2022-08-22T05:18:29.545Z,17.64
2022-08-22T05:21:00.753Z,17.68
2022-08-22T05:23:33.822Z,17.71
2022-08-22T05:26:04.307Z,17.73
2022-08-22T05:28:45.197Z,17.76
2022-08-22T05:31:34.570Z,17.75
2022-08-22T05:34:05.921Z,17.76
2022-08-22T05:36:39.558Z,17.81
2022-08-22T05:39:14.733Z,17.83
2022-08-22T05:41:42.527Z,17.89
2022-08-22T05:44:32.251Z,17.90
2022-08-22T05:47:04.652Z,18.05
2022-08-22T05:50:03.694Z,18.15
2022-08-22T05:52:49.013Z,18.27
2022-08-22T05:55:30.465Z,18.29
2022-08-22T05:58:06.241Z,18.34
2022-08-22T06:00:40.066Z,18.40
2022-08-22T06:03:29.752Z,18.44
2022-08-22T06:06:06.057Z,18.48
2022-08-22T06:08:40.263Z,18.55
2022-08-22T06:11:15.862Z,18.61
2022-08-22T06:13:54.122Z,18.68
2022-08-22T06:16:31.040Z,18.67
2022-08-22T06:18:59.394Z,18.68
2022-08-22T06:21:39.607Z,18.71
2022-08-22T06:24:13.298Z,18.77
2022-08-22T06:26:48.894Z,18.80
2022-08-22T06:29:42.906Z,18.77
2022-08-22T06:32:59.132Z,18.83
2022-08-22T06:36:07.966Z,18.84
2022-08-22T06:39:01.920Z,18.95
2022-08-22T06:41:32.847Z,19.06
2022-08-22T06:44:02.193Z,19.10
2022-08-22T06:46:32.041Z,19.12
2022-08-22T06:49:01.117Z,19.20
2022-08-22T06:51:29.799Z,19.25
2022-08-22T06:54:03.837Z,19.32
2022-08-22T06:56:39.326Z,19.47
2022-08-22T06:59:12.838Z,19.54
2022-08-22T07:02:26.121Z,19.59
2022-08-22T07:04:53.208Z,19.66
2022-08-22T07:07:24.032Z,19.61
2022-08-22T07:09:55.596Z,19.56
2022-08-22T07:12:29.419Z,19.59
2022-08-22T07:15:10.234Z,19.60
2022-08-22T07:17:46.809Z,19.58
2022-08-22T07:20:33.888Z,19.46
2022-08-22T07:23:10.476Z,19.49
2022-08-22T07:26:11.075Z,19.65
2022-08-22T07:28:51.373Z,19.83
2022-08-22T07:31:37.643Z,20.01
2022-08-22T07:34:26.313Z,20.17
2022-08-22T07:37:05.914Z,20.33
2022-08-22T07:39:46.380Z,20.39
2022-08-22T07:42:18.494Z,20.49
2022-08-22T07:45:13.737Z,20.58
2022-08-22T07:47:52.397Z,20.52
2022-08-22T07:50:31.789Z,20.58
2022-08-22T07:53:10.573Z,20.66
2022-08-22T07:55:42.172Z,20.68
2022-08-22T07:58:18.524Z,20.67
2022-08-22T08:00:47.049Z,20.70
2022-08-22T08:03:14.571Z,20.84
2022-08-22T08:05:43.812Z,20.99
2022-08-22T08:08:42.067Z,21.12
2022-08-22T08:11:12.123Z,21.15
2022-08-22T08:13:43.934Z,21.26
2022-08-22T08:16:20.281Z,21.37
2022-08-22T08:18:49.582Z,21.59
2022-08-22T08:21:32.079Z,21.75
2022-08-22T08:24:01.744Z,21.96
2022-08-22T08:26:34.572Z,22.03
2022-08-22T08:29:03.353Z,22.09
2022-08-22T08:31:43.157Z,22.05
2022-08-22T08:34:18.793Z,22.15
2022-08-22T08:37:00.521Z,22.24
2022-08-22T08:39:37.082Z,22.28
2022-08-22T08:42:17.131Z,22.26
2022-08-22T08:44:59.036Z,22.17
2022-08-22T08:47:35.931Z,22.34
2022-08-22T08:50:40.665Z,22.65
2022-08-22T08:53:38.919Z,22.94
2022-08-22T08:56:21.809Z,23.17
2022-08-22T08:59:03.621Z,23.45
2022-08-22T09:01:55.701Z,23.37
2022-08-22T09:04:59.030Z,23.40
2022-08-22T09:07:41.443Z,23.38
2022-08-22T09:10:33.041Z,23.38
2022-08-22T09:13:26.589Z,23.21
2022-08-22T09:16:17.853Z,23.21
2022-08-22T09:19:18.730Z,23.30
2022-08-22T09:22:49.845Z,23.32
2022-08-22T09:25:39.275Z,23.33
2022-08-22T09:31:48.114Z,23.32
2022-08-22T09:34:32.765Z,23.23
2022-08-22T09:37:21.239Z,23.23
2022-08-22T09:40:15.633Z,23.26
2022-08-22T09:40:17.032Z,23.40
2022-08-22T09:43:02.892Z,23.58
2022-08-22T09:45:54.296Z,23.86
2022-08-22T09:48:37.735Z,24.09
2022-08-22T09:51:31.647Z,24.26
2022-08-22T09:54:19.649Z,24.26
2022-08-22T09:57:19.050Z,24.22
2022-08-22T10:00:13.734Z,24.23
2022-08-22T10:02:49.657Z,24.33
2022-08-22T10:05:52.522Z,24.63
2022-08-22T10:08:30.678Z,24.82
2022-08-22T10:11:19.598Z,25.02
2022-08-22T10:13:57.245Z,25.15
2022-08-22T10:16:39.666Z,25.34
2022-08-22T10:19:29.002Z,25.49
2022-08-22T10:22:31.053Z,25.35
2022-08-22T10:25:24.547Z,24.86
2022-08-22T10:28:16.035Z,24.75
2022-08-22T10:31:12.787Z,24.84
2022-08-22T10:33:53.321Z,24.70
2022-08-22T10:36:44.888Z,24.88
2022-08-22T10:39:22.310Z,25.14
2022-08-22T10:42:12.321Z,25.30
2022-08-22T10:45:03.731Z,25.41
2022-08-22T10:47:41.059Z,25.47
2022-08-22T10:50:31.144Z,25.56
2022-08-22T10:53:35.635Z,25.68
2022-08-22T10:56:21.325Z,25.76
2022-08-22T10:59:13.899Z,25.81
2022-08-22T11:02:08.800Z,25.90
2022-08-22T11:04:38.847Z,26.16
2022-08-22T11:07:21.398Z,26.48
2022-08-22T11:10:02.858Z,26.77
2022-08-22T11:13:14.634Z,26.69
2022-08-22T11:16:11.604Z,26.48
2022-08-22T11:19:01.801Z,26.48
2022-08-22T11:21:36.129Z,26.67
2022-08-22T11:24:17.156Z,26.80
2022-08-22T11:27:04.100Z,26.91
2022-08-22T11:29:34.319Z,27.13
2022-08-22T11:32:39.892Z,26.97
2022-08-22T11:35:18.933Z,26.65
2022-08-22T11:38:03.354Z,26.51
2022-08-22T11:40:41.523Z,26.45
2022-08-22T11:43:28.985Z,26.35
2022-08-22T11:46:06.331Z,26.13
2022-08-22T11:48:48.575Z,25.78
2022-08-22T11:51:34.322Z,25.52
2022-08-22T11:54:14.145Z,25.42
2022-08-22T11:56:54.322Z,25.40
2022-08-22T11:59:28.561Z,25.35
2022-08-22T12:02:04.240Z,25.34
2022-08-22T12:04:38.278Z,25.40
2022-08-22T12:07:29.995Z,25.42
2022-08-22T12:10:25.857Z,25.33
2022-08-22T12:13:08.811Z,25.12
2022-08-22T12:16:10.892Z,24.83
2022-08-22T12:19:11.691Z,24.60
2022-08-22T12:21:47.516Z,24.62
2022-08-22T12:24:47.923Z,24.94
2022-08-22T12:27:29.145Z,25.11
2022-08-22T12:30:30.175Z,25.36
2022-08-22T12:33:04.042Z,25.53
2022-08-22T12:35:54.174Z,25.46
2022-08-22T12:38:51.738Z,25.37
2022-08-22T12:41:35.029Z,25.29
2022-08-22T12:44:23.630Z,25.19
2022-08-22T12:47:02.453Z,25.18
2022-08-22T12:49:57.994Z,25.15
2022-08-22T12:52:59.111Z,25.08
2022-08-22T12:55:48.955Z,24.72
2022-08-22T12:58:38.710Z,24.65
2022-08-22T13:01:08.433Z,24.65
2022-08-22T13:03:43.139Z,24.56
2022-08-22T13:06:37.978Z,24.61
2022-08-22T13:09:34.071Z,24.52
2022-08-22T13:12:33.231Z,24.47
2022-08-22T13:15:25.880Z,24.38
2022-08-22T13:17:53.976Z,24.30
2022-08-22T13:20:43.651Z,24.24
2022-08-22T13:23:32.334Z,24.23
2022-08-22T13:26:16.460Z,24.17
2022-08-22T13:29:25.769Z,24.03
2022-08-22T13:32:02.015Z,23.83
2022-08-22T13:34:45.840Z,23.77
2022-08-22T13:37:17.997Z,23.74
2022-08-22T13:39:56.025Z,23.71
2022-08-22T13:42:29.884Z,23.56
2022-08-22T13:45:03.103Z,23.26
2022-08-22T13:47:39.315Z,23.02
2022-08-22T13:50:14.912Z,22.71
2022-08-22T13:52:52.453Z,22.58
2022-08-22T13:55:43.464Z,22.48
2022-08-22T13:58:35.139Z,22.28
2022-08-22T14:01:28.510Z,21.81
2022-08-22T14:03:59.441Z,21.27
2022-08-22T14:06:56.466Z,20.79
2022-08-22T14:09:45.267Z,20.20
2022-08-22T14:12:51.165Z,19.86
2022-08-22T14:15:45.520Z,19.61
2022-08-22T14:18:30.445Z,19.27
2022-08-22T14:21:39.993Z,19.14
2022-08-22T14:24:27.288Z,18.93
2022-08-22T14:27:06.570Z,18.98
2022-08-22T14:29:52.646Z,18.90
2022-08-22T14:32:22.789Z,18.97
2022-08-22T14:35:05.134Z,19.01
2022-08-22T14:37:43.828Z,19.08
2022-08-22T14:40:13.579Z,19.12
2022-08-22T14:42:44.225Z,19.16
2022-08-22T14:45:21.960Z,19.21
2022-08-22T14:48:29.711Z,19.26
2022-08-22T14:51:08.591Z,19.29
2022-08-22T14:53:38.614Z,19.24
2022-08-22T14:56:05.733Z,19.34
2022-08-22T14:58:47.951Z,19.36
2022-08-22T15:01:19.077Z,19.43
2022-08-22T15:04:03.855Z,19.57
2022-08-22T15:06:36.373Z,19.60
2022-08-22T15:09:24.891Z,19.57
2022-08-22T15:11:53.438Z,19.67
2022-08-22T15:14:45.708Z,19.62
2022-08-22T15:17:33.833Z,19.68
2022-08-22T15:20:28.655Z,19.65
2022-08-22T15:23:00.773Z,19.69
2022-08-22T15:25:35.294Z,19.72
2022-08-22T15:28:20.383Z,19.75
2022-08-22T15:30:49.950Z,19.78
2022-08-22T15:33:34.206Z,19.80
2022-08-22T15:36:31.563Z,19.82
2022-08-22T15:39:27.898Z,19.82
2022-08-22T15:41:56.048Z,19.79
2022-08-22T15:44:33.659Z,19.77
2022-08-22T15:47:24.268Z,19.83
2022-08-22T15:50:02.335Z,19.84
2022-08-22T15:52:59.806Z,19.82
2022-08-22T15:55:34.429Z,19.81
2022-08-22T15:58:06.881Z,19.88
2022-08-22T16:00:45.217Z,19.91
2022-08-22T16:03:33.270Z,19.92
2022-08-22T16:06:08.029Z,19.94
2022-08-22T16:08:51.513Z,19.93
2022-08-22T16:11:35.821Z,19.89
2022-08-22T16:14:23.489Z,19.90
2022-08-22T16:16:51.335Z,19.90
2022-08-22T16:19:24.900Z,19.84
2022-08-22T16:21:51.746Z,19.77
2022-08-22T16:24:18.680Z,19.78
2022-08-22T16:26:46.484Z,19.77
2022-08-22T16:29:18.031Z,19.74
2022-08-22T16:31:48.064Z,19.67
2022-08-22T16:34:18.105Z,19.63
2022-08-22T16:36:45.127Z,19.55
2022-08-22T16:39:22.511Z,19.57
2022-08-22T16:42:11.818Z,19.61
2022-08-22T16:44:49.863Z,19.64
2022-08-22T16:47:41.624Z,19.68
2022-08-22T16:50:22.877Z,19.71
2022-08-22T16:52:56.813Z,19.68
2022-08-22T16:55:29.775Z,19.64
2022-08-22T16:58:11.898Z,19.64
2022-08-22T17:01:07.209Z,19.71
2022-08-22T17:04:11.819Z,19.78
2022-08-22T17:06:56.328Z,19.84
2022-08-22T17:09:23.168Z,19.77
2022-08-22T17:12:27.077Z,19.69
2022-08-22T17:15:18.691Z,19.74
2022-08-22T17:18:19.472Z,19.75
2022-08-22T17:21:26.057Z,19.77
2022-08-22T17:24:33.549Z,19.74
2022-08-22T17:27:11.765Z,19.74
2022-08-22T17:29:39.345Z,19.69
2022-08-22T17:32:33.703Z,19.59
2022-08-22T17:35:42.469Z,19.55
2022-08-22T17:38:41.025Z,19.50
2022-08-22T17:41:43.748Z,19.49
2022-08-22T17:44:22.878Z,19.49
2022-08-22T17:47:01.684Z,19.49
2022-08-22T17:49:46.826Z,19.45
2022-08-22T17:52:19.220Z,19.38
2022-08-22T17:55:05.401Z,19.37
2022-08-22T17:57:49.278Z,19.32
2022-08-22T18:00:28.623Z,19.34
2022-08-22T18:03:05.261Z,19.27
2022-08-22T18:05:38.362Z,19.12
2022-08-22T18:08:38.125Z,19.19
2022-08-22T18:11:43.458Z,19.22
2022-08-22T18:14:23.151Z,19.15
2022-08-22T18:16:53.038Z,19.10
2022-08-22T18:19:54.198Z,19.07
2022-08-22T18:22:36.098Z,19.01
2022-08-22T18:25:08.809Z,18.97
2022-08-22T18:27:44.554Z,19.00
2022-08-22T18:30:11.483Z,19.00
2022-08-22T18:32:53.919Z,18.93
2022-08-22T18:35:42.566Z,18.87
2022-08-22T18:38:26.773Z,18.91
2022-08-22T18:41:12.225Z,18.86
2022-08-22T18:43:48.394Z,18.83
2022-08-22T18:46:41.443Z,18.80
2022-08-22T18:49:15.650Z,18.80
2022-08-22T18:51:43.439Z,18.74
2022-08-22T18:54:13.884Z,18.71
2022-08-22T18:56:54.804Z,18.72
2022-08-22T18:59:40.210Z,18.66
2022-08-22T19:02:22.491Z,18.61
2022-08-22T19:05:11.010Z,18.59
2022-08-22T19:08:00.132Z,18.54
2022-08-22T19:10:45.760Z,18.51
2022-08-22T19:13:12.610Z,18.48
2022-08-22T19:15:55.494Z,18.45
2022-08-22T19:18:44.094Z,18.33
2022-08-22T19:21:48.880Z,18.26
2022-08-22T19:24:27.798Z,18.22
2022-08-22T19:27:19.556Z,18.20
2022-08-22T19:29:46.738Z,18.20
2022-08-22T19:32:44.902Z,18.14
2022-08-22T19:35:37.472Z,18.08
2022-08-22T19:38:07.816Z,17.99
2022-08-22T19:40:58.180Z,17.92
2022-08-22T19:43:38.274Z,17.96
2022-08-22T19:46:09.524Z,17.97
2022-08-22T19:48:56.755Z,17.99
2022-08-22T19:51:27.735Z,17.99
2022-08-22T19:54:05.526Z,17.99
2022-08-22T19:56:57.218Z,18.02
2022-08-22T19:59:24.265Z,18.06
2022-08-22T20:01:51.118Z,18.06
2022-08-22T20:04:47.269Z,18.03
2022-08-22T20:07:37.413Z,18.03
2022-08-22T20:10:25.044Z,18.02
2022-08-22T20:13:09.159Z,17.97
2022-08-22T20:16:13.582Z,18.00
2022-08-22T20:19:05.089Z,17.96
2022-08-22T20:21:41.930Z,17.92
2022-08-22T20:24:14.796Z,17.98
2022-08-22T20:27:03.647Z,17.96
2022-08-22T20:29:35.608Z,18.01
2022-08-22T20:32:04.493Z,17.98
2022-08-22T20:34:36.700Z,17.92
2022-08-22T20:37:27.278Z,17.87
2022-08-22T20:40:55.976Z,17.90
2022-08-22T20:43:42.340Z,17.88
2022-08-22T20:46:47.868Z,17.81
2022-08-22T20:49:31.794Z,17.75
2022-08-22T20:52:07.568Z,17.75
2022-08-22T20:54:38.286Z,17.73
2022-08-22T20:57:17.206Z,17.75
2022-08-22T20:59:58.438Z,17.75
2022-08-22T21:02:35.637Z,17.75
2022-08-22T21:05:11.837Z,17.76
2022-08-22T21:07:43.564Z,17.79
2022-08-22T21:10:44.826Z,17.77
2022-08-22T21:13:23.728Z,17.76
2022-08-22T21:15:52.293Z,17.76
2022-08-22T21:18:27.357Z,17.75
2022-08-22T21:20:55.331Z,17.73
2022-08-22T21:23:22.352Z,17.75
2022-08-22T21:25:52.826Z,17.65
2022-08-22T21:28:55.453Z,17.74
2022-08-22T21:31:25.226Z,17.75
2022-08-22T21:33:55.325Z,17.78
2022-08-22T21:36:27.499Z,17.74
2022-08-22T21:38:56.903Z,17.73
2022-08-22T21:41:26.680Z,17.72
2022-08-22T21:43:54.244Z,17.59
2022-08-22T21:46:27.222Z,17.60
2022-08-22T21:49:05.416Z,17.50
2022-08-22T21:51:46.407Z,17.61
2022-08-22T21:54:29.450Z,17.55
2022-08-22T21:56:59.210Z,17.56
2022-08-22T21:59:52.252Z,17.56
2022-08-22T22:02:28.066Z,17.53
2022-08-22T22:04:56.121Z,17.51
2022-08-22T22:07:24.523Z,17.50
2022-08-22T22:09:54.650Z,17.49
2022-08-22T22:12:23.322Z,17.44
2022-08-22T22:14:51.091Z,17.46
2022-08-22T22:17:19.174Z,17.42
2022-08-22T22:19:47.130Z,17.38
2022-08-22T22:22:14.339Z,17.30
2022-08-22T22:24:41.284Z,17.21
2022-08-22T22:27:11.699Z,17.19
2022-08-22T22:29:41.418Z,17.22
2022-08-22T22:32:09.639Z,17.18
2022-08-22T22:34:37.260Z,17.21
2022-08-22T22:37:04.313Z,17.19
2022-08-22T22:39:31.287Z,17.19
2022-08-22T22:41:58.298Z,17.13
2022-08-22T22:44:25.788Z,17.23
2022-08-22T22:46:57.651Z,17.23
2022-08-22T22:49:24.968Z,17.23
2022-08-22T22:51:51.980Z,17.27
2022-08-22T22:54:19.002Z,17.24
2022-08-22T22:56:54.452Z,17.22
2022-08-22T22:59:24.817Z,17.18
2022-08-22T23:02:20.837Z,17.14
2022-08-22T23:04:53.094Z,17.20
2022-08-22T23:07:21.226Z,17.18
2022-08-22T23:09:48.242Z,17.14
2022-08-22T23:12:15.525Z,17.13
2022-08-22T23:14:42.621Z,17.11
2022-08-22T23:17:09.910Z,17.10
2022-08-22T23:19:39.034Z,17.07
2022-08-22T23:22:07.428Z,17.08
2022-08-22T23:24:36.170Z,17.06
2022-08-22T23:27:03.343Z,17.09
2022-08-22T23:29:30.571Z,17.04
2022-08-22T23:32:04.912Z,17.09
2022-08-22T23:34:35.059Z,17.06
2022-08-22T23:37:05.866Z,16.91
2022-08-22T23:39:35.856Z,16.95
2022-08-22T23:42:02.882Z,16.97
2022-08-22T23:44:32.317Z,16.97
2022-08-22T23:47:00.061Z,16.98
2022-08-22T23:49:28.602Z,16.94
2022-08-22T23:51:56.957Z,16.95
2022-08-22T23:54:24.443Z,16.96
2022-08-22T23:57:02.378Z,16.98
2022-08-22T23:59:33.520Z,17.00
